Linden, Michigan
Current Conditions -  °F | °C
As of 1:53 PM on Friday 31 Oct 2014 (Local Time) from KFNT Reporting Station
Light Rain Light Rain  
Wind Chill: 33°   Ceiling: 1400
Heat Index: 41°   Visibility: 5mi
Dew Point: 37°   Wind: 16mph
Humidity: 86%   Direction: 360°N
Pressure: 29.93"   Gusts: 32mph
Location:  42.81°N, 83.78°W
Report Text: KFNT 311753Z 36014G28KT 5SM -RA BR BKN014 OVC020 05/03 A2993 RMK AO2 PK WND 01028/1740 SLP141 P0005 60011 T00500028 10067 20050 53007
Loading
Personal Weather Stations






























Interactive Weather Map
Tropical Storm Tracking
New forecast layout! Learn more

10-Day Weather Forecast

Advertisements
Track Severe Weather on mobile